SWA2536 KOAK-PHLI
Flight info
| Callsign | SWA2536 |
|---|---|
| Flight time | 2h 33m |
| Altitude | 32000 |
| Route | OAK6 OAK BEBOP R464 BARAZ/N0449F340 R464 BITTA NAPUA |
| Aircraft | B738/M-SDE2E3FGHIRWXY/LB1 |
Departure
| Time | 2026-05-03 23:20 |
|---|---|
| Airport | San Francisco Bay Oakland International Airport (KOAK) |
Arrival
| Time | 2026-05-04 01:53 |
|---|---|
| Airport | Lihue Airport (PHLI) |
| Time | Latitude | Longitude | Altitude | Speed | Heading |
|---|---|---|---|---|---|
| 2026-05-03 22:56 | 37.71053 | -122.21197 | 14 ft | 0 kts | 81° |
| 2026-05-03 23:10 | 37.71053 | -122.21200 | 14 ft | 1 kts | 81° |
| 2026-05-03 23:10 | 37.71051 | -122.21218 | 14 ft | 2 kts | 81° |
| 2026-05-03 23:11 | 37.71048 | -122.21236 | 14 ft | 2 kts | 81° |
| 2026-05-03 23:11 | 37.71046 | -122.21255 | 14 ft | 2 kts | 81° |
| 2026-05-03 23:11 | 37.71043 | -122.21274 | 14 ft | 2 kts | 81° |
| 2026-05-03 23:11 | 37.71041 | -122.21293 | 14 ft | 2 kts | 81° |
| 2026-05-03 23:12 | 37.71038 | -122.21311 | 14 ft | 2 kts | 81° |
| 2026-05-03 23:12 | 37.71037 | -122.21327 | 14 ft | 1 kts | 110° |
| 2026-05-03 23:12 | 37.71045 | -122.21338 | 14 ft | 1 kts | 168° |
| 2026-05-03 23:12 | 37.71051 | -122.21338 | 14 ft | 1 kts | 186° |
| 2026-05-03 23:13 | 37.71055 | -122.21338 | 14 ft | 0 kts | 181° |
| 2026-05-03 23:14 | 37.71052 | -122.21339 | 14 ft | 1 kts | 206° |
| 2026-05-03 23:15 | 37.71021 | -122.21367 | 14 ft | 7 kts | 219° |
| 2026-05-03 23:15 | 37.70975 | -122.21414 | 14 ft | 9 kts | 218° |
| 2026-05-03 23:15 | 37.70920 | -122.21466 | 14 ft | 9 kts | 218° |
| 2026-05-03 23:15 | 37.70877 | -122.21517 | 14 ft | 8 kts | 243° |
| 2026-05-03 23:16 | 37.70866 | -122.21589 | 14 ft | 7 kts | 252° |
| 2026-05-03 23:16 | 37.70835 | -122.21636 | 14 ft | 7 kts | 223° |
| 2026-05-03 23:16 | 37.70785 | -122.21689 | 14 ft | 11 kts | 221° |
| 2026-05-03 23:16 | 37.70731 | -122.21748 | 14 ft | 9 kts | 220° |
| 2026-05-03 23:17 | 37.70681 | -122.21786 | 14 ft | 7 kts | 189° |
| 2026-05-03 23:17 | 37.70637 | -122.21770 | 14 ft | 6 kts | 149° |
| 2026-05-03 23:17 | 37.70597 | -122.21724 | 14 ft | 9 kts | 132° |
| 2026-05-03 23:17 | 37.70550 | -122.21652 | 14 ft | 14 kts | 129° |
| 2026-05-03 23:18 | 37.70468 | -122.21530 | 13 ft | 20 kts | 131° |
| 2026-05-03 23:18 | 37.70378 | -122.21407 | 13 ft | 18 kts | 148° |
| 2026-05-03 23:18 | 37.70267 | -122.21360 | 13 ft | 14 kts | 167° |
| 2026-05-03 23:18 | 37.70186 | -122.21402 | 13 ft | 12 kts | 220° |
| 2026-05-03 23:19 | 37.70171 | -122.21457 | 13 ft | 6 kts | 301° |
| 2026-05-03 23:19 | 37.70196 | -122.21502 | 13 ft | 9 kts | 310° |
| 2026-05-03 23:19 | 37.70351 | -122.21732 | 14 ft | 65 kts | 311° |
| 2026-05-03 23:19 | 37.70773 | -122.22364 | 14 ft | 121 kts | 310° |
| 2026-05-03 23:20 | 37.71417 | -122.23330 | 13 ft | 166 kts | 308° |
| 2026-05-03 23:20 | 37.72220 | -122.24525 | 255 ft | 181 kts | 308° |
| 2026-05-03 23:20 | 37.72995 | -122.25738 | 876 ft | 179 kts | 300° |
| 2026-05-03 23:20 | 37.73661 | -122.27115 | 1298 ft | 186 kts | 297° |
| 2026-05-03 23:21 | 37.74302 | -122.28565 | 1685 ft | 193 kts | 297° |
| 2026-05-03 23:21 | 37.75015 | -122.30080 | 1845 ft | 215 kts | 301° |
| 2026-05-03 23:21 | 37.75861 | -122.31722 | 2191 ft | 229 kts | 301° |
| 2026-05-03 23:21 | 37.76841 | -122.33469 | 2356 ft | 252 kts | 309° |
| 2026-05-03 23:22 | 37.79274 | -122.36791 | 3427 ft | 266 kts | 313° |
| 2026-05-03 23:22 | 37.80581 | -122.38494 | 4012 ft | 270 kts | 313° |
| 2026-05-03 23:22 | 37.81812 | -122.40265 | 4566 ft | 274 kts | 302° |
| 2026-05-03 23:23 | 37.82611 | -122.42481 | 5137 ft | 277 kts | 287° |
| 2026-05-03 23:23 | 37.83134 | -122.44825 | 5690 ft | 281 kts | 284° |
| 2026-05-03 23:23 | 37.83573 | -122.47213 | 6209 ft | 285 kts | 275° |
| 2026-05-03 23:23 | 37.83372 | -122.49714 | 6744 ft | 286 kts | 248° |
| 2026-05-03 23:24 | 37.82529 | -122.51953 | 7384 ft | 284 kts | 239° |
| 2026-05-03 23:24 | 37.81578 | -122.54147 | 7924 ft | 288 kts | 240° |
| 2026-05-03 23:24 | 37.80698 | -122.56403 | 8455 ft | 292 kts | 243° |
| 2026-05-03 23:24 | 37.79885 | -122.58769 | 9044 ft | 294 kts | 245° |
| 2026-05-03 23:25 | 37.79126 | -122.61152 | 9555 ft | 297 kts | 246° |
| 2026-05-03 23:25 | 37.78371 | -122.63594 | 10114 ft | 299 kts | 246° |
| 2026-05-03 23:25 | 37.77585 | -122.66108 | 10384 ft | 314 kts | 246° |
| 2026-05-03 23:25 | 37.76763 | -122.68696 | 10606 ft | 327 kts | 245° |
| 2026-05-03 23:26 | 37.75890 | -122.71428 | 10831 ft | 341 kts | 245° |
| 2026-05-03 23:26 | 37.74987 | -122.74248 | 11011 ft | 356 kts | 246° |
| 2026-05-03 23:26 | 37.74049 | -122.77180 | 11186 ft | 369 kts | 246° |
| 2026-05-03 23:26 | 37.73076 | -122.80221 | 11714 ft | 372 kts | 246° |
| 2026-05-03 23:27 | 37.72105 | -122.83254 | 12210 ft | 376 kts | 246° |
| 2026-05-03 23:27 | 37.71130 | -122.86305 | 12777 ft | 378 kts | 246° |
| 2026-05-03 23:27 | 37.70140 | -122.89401 | 13285 ft | 381 kts | 246° |
| 2026-05-03 23:27 | 37.69151 | -122.92487 | 13791 ft | 385 kts | 246° |
| 2026-05-03 23:28 | 37.68144 | -122.95626 | 14336 ft | 389 kts | 246° |
| 2026-05-03 23:28 | 37.67136 | -122.98762 | 14879 ft | 391 kts | 246° |
| 2026-05-03 23:28 | 37.66098 | -123.01985 | 15392 ft | 395 kts | 246° |
| 2026-05-03 23:28 | 37.65070 | -123.05169 | 15914 ft | 398 kts | 246° |
| 2026-05-03 23:29 | 37.64027 | -123.08399 | 16432 ft | 401 kts | 246° |
| 2026-05-03 23:29 | 37.62962 | -123.11695 | 16957 ft | 404 kts | 246° |
| 2026-05-03 23:29 | 37.61904 | -123.14962 | 17432 ft | 407 kts | 245° |
| 2026-05-03 23:29 | 37.60829 | -123.18282 | 17925 ft | 410 kts | 245° |
| 2026-05-03 23:30 | 37.59754 | -123.21596 | 18417 ft | 412 kts | 246° |
| 2026-05-03 23:30 | 37.58674 | -123.24921 | 18848 ft | 415 kts | 245° |
| 2026-05-03 23:30 | 37.57578 | -123.28291 | 19246 ft | 419 kts | 246° |
| 2026-05-03 23:30 | 37.56466 | -123.31707 | 19690 ft | 422 kts | 246° |
| 2026-05-03 23:31 | 37.55347 | -123.35139 | 20119 ft | 425 kts | 246° |
| 2026-05-03 23:31 | 37.54217 | -123.38598 | 20537 ft | 428 kts | 246° |
| 2026-05-03 23:31 | 37.53096 | -123.42028 | 20928 ft | 431 kts | 245° |
| 2026-05-03 23:31 | 37.51957 | -123.45509 | 21318 ft | 434 kts | 246° |
| 2026-05-03 23:32 | 37.50795 | -123.49056 | 21756 ft | 436 kts | 246° |
| 2026-05-03 23:32 | 37.49636 | -123.52588 | 22145 ft | 438 kts | 246° |
| 2026-05-03 23:32 | 37.48477 | -123.56105 | 22525 ft | 441 kts | 246° |
| 2026-05-03 23:32 | 37.47290 | -123.59705 | 22832 ft | 445 kts | 246° |
| 2026-05-03 23:33 | 37.46108 | -123.63290 | 23215 ft | 448 kts | 246° |
| 2026-05-03 23:33 | 37.44905 | -123.66933 | 23663 ft | 449 kts | 245° |
| 2026-05-03 23:33 | 37.43709 | -123.70542 | 23895 ft | 455 kts | 245° |
| 2026-05-03 23:33 | 37.42495 | -123.74200 | 24346 ft | 454 kts | 245° |
| 2026-05-03 23:34 | 37.41277 | -123.77868 | 24700 ft | 457 kts | 245° |
| 2026-05-03 23:34 | 37.40045 | -123.81580 | 24967 ft | 461 kts | 245° |
| 2026-05-03 23:34 | 37.38820 | -123.85266 | 25391 ft | 461 kts | 245° |
| 2026-05-03 23:34 | 37.37593 | -123.88957 | 25706 ft | 463 kts | 245° |
| 2026-05-03 23:35 | 37.36345 | -123.92705 | 26145 ft | 462 kts | 245° |
| 2026-05-03 23:35 | 37.35117 | -123.96399 | 26543 ft | 463 kts | 245° |
| 2026-05-03 23:35 | 37.33875 | -124.00131 | 26897 ft | 463 kts | 245° |
| 2026-05-03 23:35 | 37.32618 | -124.03898 | 27188 ft | 466 kts | 245° |
| 2026-05-03 23:36 | 37.31359 | -124.07666 | 27381 ft | 470 kts | 245° |
| 2026-05-03 23:36 | 37.30105 | -124.11418 | 27861 ft | 467 kts | 245° |
| 2026-05-03 23:36 | 37.28860 | -124.15138 | 28413 ft | 462 kts | 244° |
| 2026-05-03 23:36 | 37.27614 | -124.18859 | 28765 ft | 462 kts | 245° |
| 2026-05-03 23:37 | 37.26374 | -124.22555 | 29187 ft | 460 kts | 245° |
| 2026-05-03 23:37 | 37.25115 | -124.26302 | 29421 ft | 462 kts | 245° |
| 2026-05-03 23:37 | 37.23851 | -124.30052 | 29798 ft | 460 kts | 245° |
| 2026-05-03 23:37 | 37.22595 | -124.33781 | 29965 ft | 463 kts | 245° |
| 2026-05-03 23:38 | 37.21349 | -124.37473 | 30331 ft | 461 kts | 245° |
| 2026-05-03 23:38 | 37.20089 | -124.41197 | 30494 ft | 464 kts | 245° |
| 2026-05-03 23:38 | 37.18829 | -124.44919 | 30815 ft | 461 kts | 245° |
| 2026-05-03 23:38 | 37.17588 | -124.48587 | 31375 ft | 449 kts | 246° |
| 2026-05-03 23:39 | 37.16391 | -124.52122 | 31741 ft | 445 kts | 246° |
| 2026-05-03 23:39 | 37.15182 | -124.55684 | 31900 ft | 445 kts | 246° |
| 2026-05-03 23:39 | 37.12763 | -124.62795 | 31971 ft | 441 kts | 246° |
| 2026-05-03 23:40 | 37.10360 | -124.69848 | 31953 ft | 437 kts | 246° |
| 2026-05-03 23:40 | 37.07962 | -124.76863 | 31973 ft | 441 kts | 246° |
| 2026-05-03 23:41 | 37.05560 | -124.83879 | 31968 ft | 441 kts | 246° |
| 2026-05-03 23:41 | 37.03131 | -124.90955 | 31943 ft | 440 kts | 246° |
| 2026-05-03 23:42 | 37.00709 | -124.97994 | 31933 ft | 442 kts | 246° |
| 2026-05-03 23:42 | 36.98434 | -125.05094 | 31959 ft | 442 kts | 250° |
| 2026-05-03 23:43 | 36.96482 | -125.12409 | 31956 ft | 440 kts | 252° |
| 2026-05-03 23:43 | 36.94597 | -125.19706 | 31958 ft | 442 kts | 252° |
| 2026-05-03 23:44 | 36.92687 | -125.26979 | 31968 ft | 441 kts | 251° |
| 2026-05-03 23:44 | 36.90741 | -125.34251 | 31974 ft | 442 kts | 251° |
| 2026-05-03 23:45 | 36.88771 | -125.41534 | 31963 ft | 444 kts | 251° |
| 2026-05-03 23:45 | 36.86793 | -125.48796 | 31978 ft | 443 kts | 251° |
| 2026-05-03 23:46 | 36.84804 | -125.56059 | 31974 ft | 442 kts | 251° |
| 2026-05-03 23:46 | 36.82818 | -125.63293 | 31970 ft | 443 kts | 251° |
| 2026-05-03 23:47 | 36.80810 | -125.70580 | 31970 ft | 443 kts | 251° |
| 2026-05-03 23:47 | 36.78821 | -125.77793 | 31977 ft | 442 kts | 251° |
| 2026-05-03 23:48 | 36.76812 | -125.85050 | 31966 ft | 442 kts | 251° |
| 2026-05-03 23:48 | 36.74801 | -125.92297 | 31972 ft | 444 kts | 251° |
| 2026-05-03 23:49 | 36.72770 | -125.99594 | 31970 ft | 442 kts | 251° |
| 2026-05-03 23:49 | 36.70763 | -126.06785 | 31982 ft | 443 kts | 251° |
| 2026-05-03 23:50 | 36.69072 | -126.12828 | 31976 ft | 444 kts | 251° |
| 2026-05-03 23:50 | 36.66707 | -126.21255 | 31976 ft | 443 kts | 251° |
| 2026-05-03 23:51 | 36.64665 | -126.28514 | 31980 ft | 441 kts | 251° |
| 2026-05-03 23:51 | 36.62616 | -126.35777 | 31964 ft | 446 kts | 251° |
| 2026-05-03 23:52 | 36.60573 | -126.43000 | 31976 ft | 439 kts | 252° |
| 2026-05-03 23:52 | 36.58541 | -126.50159 | 31979 ft | 443 kts | 252° |
| 2026-05-03 23:53 | 36.56498 | -126.57336 | 31987 ft | 437 kts | 252° |
| 2026-05-03 23:53 | 36.54460 | -126.64484 | 31981 ft | 443 kts | 252° |
| 2026-05-03 23:54 | 36.52401 | -126.71690 | 31972 ft | 438 kts | 251° |
| 2026-05-03 23:54 | 36.50386 | -126.78714 | 31977 ft | 433 kts | 252° |
| 2026-05-03 23:55 | 36.48342 | -126.85828 | 31980 ft | 440 kts | 252° |
| 2026-05-03 23:55 | 36.46308 | -126.92879 | 31978 ft | 429 kts | 251° |
| 2026-05-03 23:56 | 36.44277 | -126.99904 | 31982 ft | 436 kts | 251° |
| 2026-05-03 23:56 | 36.42224 | -127.06975 | 31979 ft | 436 kts | 252° |
| 2026-05-03 23:57 | 36.40184 | -127.13979 | 31979 ft | 432 kts | 252° |
| 2026-05-03 23:57 | 36.38130 | -127.21032 | 31980 ft | 437 kts | 252° |
| 2026-05-03 23:58 | 36.36073 | -127.28080 | 31983 ft | 434 kts | 252° |
| 2026-05-03 23:58 | 36.33999 | -127.35151 | 31975 ft | 434 kts | 251° |
| 2026-05-03 23:59 | 36.31949 | -127.42130 | 31987 ft | 435 kts | 252° |
| 2026-05-03 23:59 | 36.29866 | -127.49206 | 31984 ft | 434 kts | 252° |
| 2026-05-04 00:00 | 36.27796 | -127.56216 | 31979 ft | 435 kts | 251° |
| 2026-05-04 00:00 | 36.25719 | -127.63234 | 31990 ft | 434 kts | 252° |
| 2026-05-04 00:01 | 36.23636 | -127.70256 | 31991 ft | 435 kts | 251° |
| 2026-05-04 00:01 | 36.21548 | -127.77268 | 31982 ft | 434 kts | 251° |
| 2026-05-04 00:02 | 36.19461 | -127.84265 | 31986 ft | 434 kts | 251° |
| 2026-05-04 00:02 | 36.17366 | -127.91267 | 31994 ft | 434 kts | 251° |
| 2026-05-04 00:03 | 36.15264 | -127.98282 | 32001 ft | 431 kts | 251° |
| 2026-05-04 00:03 | 36.13162 | -128.05284 | 32012 ft | 434 kts | 251° |
| 2026-05-04 00:04 | 36.11068 | -128.12238 | 32003 ft | 434 kts | 251° |
| 2026-05-04 00:04 | 36.08953 | -128.19240 | 31996 ft | 433 kts | 251° |
| 2026-05-04 00:05 | 36.06858 | -128.26160 | 32013 ft | 433 kts | 251° |
| 2026-05-04 00:05 | 36.04748 | -128.33110 | 32004 ft | 434 kts | 251° |
| 2026-05-04 00:06 | 36.02612 | -128.40131 | 32005 ft | 436 kts | 251° |
| 2026-05-04 00:06 | 36.00481 | -128.47121 | 32003 ft | 436 kts | 251° |
| 2026-05-04 00:07 | 35.98357 | -128.54062 | 32019 ft | 437 kts | 251° |
| 2026-05-04 00:07 | 35.96196 | -128.61112 | 32013 ft | 436 kts | 251° |
| 2026-05-04 00:08 | 35.94040 | -128.68129 | 32010 ft | 438 kts | 250° |
| 2026-05-04 00:08 | 35.91873 | -128.75163 | 32003 ft | 439 kts | 250° |
| 2026-05-04 00:09 | 35.89708 | -128.82175 | 32003 ft | 439 kts | 251° |
| 2026-05-04 00:09 | 35.87536 | -128.89197 | 32004 ft | 439 kts | 250° |
| 2026-05-04 00:10 | 35.85370 | -128.96187 | 32010 ft | 437 kts | 251° |
| 2026-05-04 00:10 | 35.83194 | -129.03183 | 32013 ft | 439 kts | 251° |
| 2026-05-04 00:11 | 35.80990 | -129.10260 | 32006 ft | 440 kts | 251° |
| 2026-05-04 00:11 | 35.64626 | -129.62201 | 32038 ft | 439 kts | 251° |
| 2026-05-04 00:12 | 35.46500 | -130.18767 | 32039 ft | 443 kts | 251° |
| 2026-05-04 00:12 | 35.28268 | -130.74469 | 32051 ft | 440 kts | 251° |
| 2026-05-04 00:13 | 35.16412 | -131.10252 | 32049 ft | 442 kts | 251° |
| 2026-05-04 00:13 | 35.14108 | -131.17136 | 32048 ft | 439 kts | 251° |
| 2026-05-04 00:14 | 35.11788 | -131.24046 | 32050 ft | 440 kts | 252° |
| 2026-05-04 00:14 | 35.09461 | -131.30975 | 32057 ft | 441 kts | 252° |
| 2026-05-04 00:15 | 35.07130 | -131.37901 | 32058 ft | 443 kts | 252° |
| 2026-05-04 00:15 | 35.04792 | -131.44830 | 32052 ft | 439 kts | 252° |
| 2026-05-04 00:16 | 35.02473 | -131.51688 | 32060 ft | 440 kts | 252° |
| 2026-05-04 00:16 | 35.00137 | -131.58589 | 32070 ft | 442 kts | 252° |
| 2026-05-04 00:17 | 34.97797 | -131.65485 | 32064 ft | 441 kts | 252° |
| 2026-05-04 00:17 | 34.95437 | -131.72417 | 32066 ft | 441 kts | 252° |
| 2026-05-04 00:18 | 34.93080 | -131.79327 | 32067 ft | 440 kts | 252° |
| 2026-05-04 00:18 | 34.90731 | -131.86198 | 32068 ft | 440 kts | 252° |
| 2026-05-04 00:19 | 34.88377 | -131.93066 | 32084 ft | 442 kts | 253° |
| 2026-05-04 00:19 | 34.86010 | -131.99960 | 32030 ft | 440 kts | 253° |
| 2026-05-04 00:20 | 34.83638 | -132.06859 | 32086 ft | 443 kts | 253° |
| 2026-05-04 00:20 | 34.81277 | -132.13702 | 32070 ft | 439 kts | 253° |
| 2026-05-04 00:21 | 34.78895 | -132.20601 | 32065 ft | 441 kts | 253° |
| 2026-05-04 00:21 | 34.76269 | -132.28178 | 32081 ft | 443 kts | 253° |
| 2026-05-04 00:22 | 34.57152 | -132.82812 | 32072 ft | 442 kts | 254° |
| 2026-05-04 00:22 | 34.37800 | -133.37135 | 32101 ft | 438 kts | 256° |
| 2026-05-04 00:23 | 34.18428 | -133.90605 | 32123 ft | 433 kts | 257° |
| 2026-05-04 00:23 | 33.99060 | -134.43404 | 32123 ft | 431 kts | 257° |
| 2026-05-04 00:24 | 33.88760 | -134.70944 | 32124 ft | 433 kts | 256° |
| 2026-05-04 00:24 | 33.86286 | -134.77608 | 32283 ft | 440 kts | 256° |
| 2026-05-04 00:25 | 33.85030 | -134.80978 | 32532 ft | 440 kts | 256° |
| 2026-05-04 00:25 | 33.83776 | -134.84331 | 32690 ft | 442 kts | 256° |
| 2026-05-04 00:25 | 33.82504 | -134.87733 | 32891 ft | 443 kts | 256° |
| 2026-05-04 00:25 | 33.81243 | -134.91098 | 33074 ft | 444 kts | 256° |
| 2026-05-04 00:26 | 33.79960 | -134.94508 | 33361 ft | 442 kts | 256° |
| 2026-05-04 00:26 | 33.78697 | -134.97853 | 33620 ft | 441 kts | 256° |
| 2026-05-04 00:26 | 33.77429 | -135.01207 | 33889 ft | 440 kts | 256° |
| 2026-05-04 00:26 | 33.76168 | -135.04541 | 34103 ft | 440 kts | 256° |
| 2026-05-04 00:27 | 33.73626 | -135.11272 | 34140 ft | 442 kts | 256° |
| 2026-05-04 00:27 | 33.71096 | -135.17952 | 34136 ft | 439 kts | 255° |
| 2026-05-04 00:28 | 33.68554 | -135.24657 | 34149 ft | 442 kts | 255° |
| 2026-05-04 00:28 | 33.66014 | -135.31328 | 34135 ft | 440 kts | 255° |
| 2026-05-04 00:29 | 33.63472 | -135.38008 | 34156 ft | 441 kts | 255° |
| 2026-05-04 00:29 | 33.61360 | -135.43543 | 34141 ft | 440 kts | 255° |
| 2026-05-04 00:30 | 33.58374 | -135.51350 | 34148 ft | 440 kts | 255° |
| 2026-05-04 00:30 | 33.55809 | -135.58046 | 34149 ft | 441 kts | 255° |
| 2026-05-04 00:31 | 33.53260 | -135.64685 | 34153 ft | 441 kts | 254° |
| 2026-05-04 00:31 | 33.50699 | -135.71349 | 34156 ft | 441 kts | 254° |
| 2026-05-04 00:32 | 33.48119 | -135.78047 | 34148 ft | 443 kts | 253° |
| 2026-05-04 00:32 | 33.45536 | -135.84737 | 34161 ft | 443 kts | 253° |
| 2026-05-04 00:33 | 33.41678 | -135.94685 | 34157 ft | 441 kts | 253° |
| 2026-05-04 00:34 | 33.39098 | -136.01338 | 34155 ft | 443 kts | 253° |
| 2026-05-04 00:34 | 33.36499 | -136.08022 | 34158 ft | 442 kts | 253° |
| 2026-05-04 00:35 | 33.33900 | -136.14699 | 34159 ft | 444 kts | 253° |
| 2026-05-04 00:35 | 33.31302 | -136.21353 | 34158 ft | 443 kts | 252° |
| 2026-05-04 00:36 | 33.28697 | -136.28011 | 34161 ft | 445 kts | 252° |
| 2026-05-04 00:36 | 33.26075 | -136.34701 | 34161 ft | 446 kts | 252° |
| 2026-05-04 00:37 | 33.23443 | -136.41402 | 34161 ft | 447 kts | 252° |
| 2026-05-04 00:37 | 33.20807 | -136.48097 | 34162 ft | 446 kts | 252° |
| 2026-05-04 00:38 | 33.18171 | -136.54776 | 34164 ft | 447 kts | 252° |
| 2026-05-04 00:38 | 33.15535 | -136.61447 | 34166 ft | 447 kts | 252° |
| 2026-05-04 00:39 | 33.12868 | -136.68182 | 34166 ft | 449 kts | 251° |
| 2026-05-04 00:39 | 33.10196 | -136.74925 | 34170 ft | 448 kts | 251° |
| 2026-05-04 00:40 | 33.07525 | -136.81644 | 34169 ft | 449 kts | 251° |
| 2026-05-04 00:40 | 33.04843 | -136.88380 | 34170 ft | 451 kts | 251° |
| 2026-05-04 00:41 | 33.02164 | -136.95099 | 34172 ft | 450 kts | 250° |
| 2026-05-04 00:41 | 32.99486 | -137.01798 | 34175 ft | 451 kts | 250° |
| 2026-05-04 00:42 | 32.96778 | -137.08560 | 34172 ft | 451 kts | 250° |
| 2026-05-04 00:42 | 32.94091 | -137.15256 | 34173 ft | 452 kts | 250° |
| 2026-05-04 00:43 | 32.91384 | -137.21985 | 34174 ft | 450 kts | 250° |
| 2026-05-04 00:43 | 32.88674 | -137.28713 | 34177 ft | 452 kts | 250° |
| 2026-05-04 00:44 | 32.85945 | -137.35469 | 34177 ft | 452 kts | 250° |
| 2026-05-04 00:44 | 32.83218 | -137.42217 | 34182 ft | 453 kts | 250° |
| 2026-05-04 00:45 | 32.80501 | -137.48923 | 34181 ft | 454 kts | 250° |
| 2026-05-04 00:45 | 32.77760 | -137.55676 | 34182 ft | 454 kts | 250° |
| 2026-05-04 00:46 | 32.75008 | -137.62440 | 34182 ft | 455 kts | 250° |
| 2026-05-04 00:46 | 32.72256 | -137.69189 | 34180 ft | 455 kts | 249° |
| 2026-05-04 00:47 | 32.69475 | -137.75996 | 34180 ft | 456 kts | 249° |
| 2026-05-04 00:47 | 32.66721 | -137.82726 | 34185 ft | 455 kts | 249° |
| 2026-05-04 00:48 | 32.63956 | -137.89468 | 34183 ft | 456 kts | 249° |
| 2026-05-04 00:48 | 32.61184 | -137.96217 | 34186 ft | 456 kts | 249° |
| 2026-05-04 00:49 | 32.58413 | -138.02953 | 34184 ft | 456 kts | 249° |
| 2026-05-04 00:49 | 32.55619 | -138.09729 | 34183 ft | 457 kts | 249° |
| 2026-05-04 00:50 | 32.52831 | -138.16479 | 34183 ft | 458 kts | 249° |
| 2026-05-04 00:50 | 32.50028 | -138.23250 | 34184 ft | 459 kts | 249° |
| 2026-05-04 00:51 | 32.47221 | -138.30017 | 34186 ft | 459 kts | 248° |
| 2026-05-04 00:51 | 32.44403 | -138.36798 | 34183 ft | 459 kts | 249° |
| 2026-05-04 00:52 | 32.41574 | -138.43594 | 34183 ft | 459 kts | 248° |
| 2026-05-04 00:52 | 32.38763 | -138.50334 | 34188 ft | 460 kts | 248° |
| 2026-05-04 00:53 | 32.35940 | -138.57092 | 34187 ft | 460 kts | 248° |
| 2026-05-04 00:53 | 32.33102 | -138.63866 | 34185 ft | 460 kts | 248° |
| 2026-05-04 00:54 | 32.30241 | -138.70691 | 34190 ft | 461 kts | 248° |
| 2026-05-04 00:54 | 32.27399 | -138.77454 | 34189 ft | 461 kts | 248° |
| 2026-05-04 00:55 | 32.24535 | -138.84253 | 34188 ft | 462 kts | 248° |
| 2026-05-04 00:55 | 32.21668 | -138.91048 | 34193 ft | 462 kts | 248° |
| 2026-05-04 00:56 | 32.18797 | -138.97838 | 34193 ft | 462 kts | 248° |
| 2026-05-04 00:56 | 32.15920 | -139.04631 | 34195 ft | 462 kts | 248° |
| 2026-05-04 00:57 | 32.13055 | -139.11380 | 34191 ft | 462 kts | 248° |
| 2026-05-04 00:57 | 32.10177 | -139.18147 | 34193 ft | 461 kts | 248° |
| 2026-05-04 00:58 | 32.07294 | -139.24919 | 34198 ft | 464 kts | 247° |
| 2026-05-04 00:58 | 32.04406 | -139.31686 | 34198 ft | 463 kts | 248° |
| 2026-05-04 00:59 | 32.01508 | -139.38466 | 34198 ft | 463 kts | 248° |
| 2026-05-04 00:59 | 31.98614 | -139.45224 | 34197 ft | 463 kts | 248° |
| 2026-05-04 01:00 | 31.95696 | -139.52020 | 34202 ft | 463 kts | 248° |
| 2026-05-04 01:00 | 31.92776 | -139.58810 | 34202 ft | 463 kts | 248° |
| 2026-05-04 01:01 | 31.89866 | -139.65567 | 34202 ft | 464 kts | 247° |
| 2026-05-04 01:01 | 31.86944 | -139.72339 | 34198 ft | 465 kts | 247° |
| 2026-05-04 01:02 | 31.84002 | -139.79144 | 34203 ft | 465 kts | 247° |
| 2026-05-04 01:02 | 31.81074 | -139.85901 | 34209 ft | 465 kts | 246° |
| 2026-05-04 01:03 | 31.78146 | -139.92647 | 34207 ft | 464 kts | 247° |
| 2026-05-04 01:03 | 31.75216 | -139.99387 | 34210 ft | 464 kts | 246° |
| 2026-05-04 01:04 | 31.72273 | -140.06145 | 34209 ft | 465 kts | 246° |
| 2026-05-04 01:04 | 31.69318 | -140.12915 | 34208 ft | 465 kts | 246° |
| 2026-05-04 01:05 | 31.66367 | -140.19667 | 34208 ft | 465 kts | 246° |
| 2026-05-04 01:05 | 31.63414 | -140.26411 | 34209 ft | 465 kts | 246° |
| 2026-05-04 01:06 | 31.60464 | -140.33134 | 34210 ft | 464 kts | 246° |
| 2026-05-04 01:06 | 31.57510 | -140.39856 | 34208 ft | 464 kts | 246° |
| 2026-05-04 01:07 | 31.54552 | -140.46573 | 34210 ft | 463 kts | 246° |
| 2026-05-04 01:07 | 31.51591 | -140.53281 | 34209 ft | 463 kts | 246° |
| 2026-05-04 01:08 | 31.48618 | -140.60002 | 34205 ft | 463 kts | 246° |
| 2026-05-04 01:08 | 31.45651 | -140.66701 | 34205 ft | 463 kts | 246° |
| 2026-05-04 01:09 | 31.42676 | -140.73406 | 34202 ft | 463 kts | 246° |
| 2026-05-04 01:09 | 31.39687 | -140.80130 | 34203 ft | 463 kts | 246° |
| 2026-05-04 01:10 | 31.36724 | -140.86789 | 34202 ft | 464 kts | 246° |
| 2026-05-04 01:10 | 31.33737 | -140.93488 | 34202 ft | 463 kts | 246° |
| 2026-05-04 01:11 | 31.30751 | -141.00171 | 34202 ft | 462 kts | 246° |
| 2026-05-04 01:11 | 31.27785 | -141.06795 | 34202 ft | 462 kts | 246° |
| 2026-05-04 01:12 | 31.24796 | -141.13460 | 34200 ft | 463 kts | 246° |
| 2026-05-04 01:12 | 31.21799 | -141.20132 | 34201 ft | 462 kts | 246° |
| 2026-05-04 01:13 | 31.18832 | -141.26727 | 34202 ft | 461 kts | 246° |
| 2026-05-04 01:13 | 31.15837 | -141.33368 | 34202 ft | 461 kts | 246° |
| 2026-05-04 01:14 | 31.12851 | -141.39972 | 34202 ft | 462 kts | 246° |
| 2026-05-04 01:14 | 31.09846 | -141.46609 | 34204 ft | 461 kts | 246° |
| 2026-05-04 01:15 | 31.06854 | -141.53201 | 34206 ft | 461 kts | 246° |
| 2026-05-04 01:15 | 31.03861 | -141.59790 | 34207 ft | 460 kts | 246° |
| 2026-05-04 01:16 | 31.00858 | -141.66389 | 34208 ft | 459 kts | 245° |
| 2026-05-04 01:16 | 30.97867 | -141.72952 | 34208 ft | 460 kts | 245° |
| 2026-05-04 01:17 | 30.94861 | -141.79535 | 34210 ft | 460 kts | 245° |
| 2026-05-04 01:17 | 30.91852 | -141.86112 | 34208 ft | 460 kts | 245° |
| 2026-05-04 01:18 | 30.88855 | -141.92651 | 34199 ft | 459 kts | 245° |
| 2026-05-04 01:18 | 30.85862 | -141.99170 | 34194 ft | 459 kts | 245° |
| 2026-05-04 01:19 | 30.82847 | -142.05727 | 34194 ft | 459 kts | 245° |
| 2026-05-04 01:19 | 30.79843 | -142.12248 | 34193 ft | 458 kts | 245° |
| 2026-05-04 01:20 | 30.76830 | -142.18773 | 34194 ft | 458 kts | 245° |
| 2026-05-04 01:20 | 30.73799 | -142.25323 | 34194 ft | 458 kts | 245° |
| 2026-05-04 01:21 | 30.70786 | -142.31831 | 34193 ft | 457 kts | 245° |
| 2026-05-04 01:21 | 30.67771 | -142.38333 | 34194 ft | 457 kts | 245° |
| 2026-05-04 01:22 | 30.64765 | -142.44800 | 34194 ft | 457 kts | 245° |
| 2026-05-04 01:22 | 30.61751 | -142.51274 | 34194 ft | 457 kts | 245° |
| 2026-05-04 01:23 | 30.58734 | -142.57748 | 34194 ft | 457 kts | 245° |
| 2026-05-04 01:23 | 30.55702 | -142.64239 | 34193 ft | 456 kts | 245° |
| 2026-05-04 01:24 | 30.52690 | -142.70677 | 34193 ft | 456 kts | 245° |
| 2026-05-04 01:24 | 30.49673 | -142.77109 | 34194 ft | 456 kts | 244° |
| 2026-05-04 01:25 | 30.46639 | -142.83574 | 34194 ft | 455 kts | 244° |
| 2026-05-04 01:25 | 30.43616 | -142.90002 | 34194 ft | 455 kts | 245° |
| 2026-05-04 01:26 | 30.40581 | -142.96448 | 34194 ft | 455 kts | 245° |
| 2026-05-04 01:26 | 30.37567 | -143.02832 | 34194 ft | 455 kts | 245° |
| 2026-05-04 01:27 | 30.34539 | -143.09236 | 34194 ft | 454 kts | 245° |
| 2026-05-04 01:27 | 30.31484 | -143.15691 | 34194 ft | 455 kts | 244° |
| 2026-05-04 01:28 | 30.28448 | -143.22092 | 34194 ft | 453 kts | 244° |
| 2026-05-04 01:28 | 30.25432 | -143.28442 | 34190 ft | 453 kts | 245° |
| 2026-05-04 01:29 | 30.22398 | -143.34824 | 34189 ft | 455 kts | 245° |
| 2026-05-04 01:29 | 30.19341 | -143.41232 | 34195 ft | 455 kts | 245° |
| 2026-05-04 01:30 | 30.16308 | -143.47586 | 34195 ft | 453 kts | 245° |
| 2026-05-04 01:30 | 30.13271 | -143.53944 | 34196 ft | 453 kts | 245° |
| 2026-05-04 01:31 | 29.82975 | -144.16768 | 34185 ft | 452 kts | 244° |
| 2026-05-04 01:31 | 29.34055 | -145.16121 | 34209 ft | 444 kts | 244° |
| 2026-05-04 01:32 | 28.84699 | -146.14040 | 34208 ft | 444 kts | 243° |
| 2026-05-04 01:32 | 28.59728 | -146.62599 | 34022 ft | 442 kts | 243° |
| 2026-05-04 01:32 | 28.34852 | -147.10435 | 34294 ft | 438 kts | 243° |
| 2026-05-04 01:32 | 28.09933 | -147.57925 | 33240 ft | 439 kts | 243° |
| 2026-05-04 01:33 | 27.84891 | -148.05130 | 33158 ft | 440 kts | 242° |
| 2026-05-04 01:33 | 27.60000 | -148.51360 | 34924 ft | 436 kts | 242° |
| 2026-05-04 01:33 | 27.34480 | -148.98309 | 35365 ft | 433 kts | 241° |
| 2026-05-04 01:33 | 27.09191 | -149.44513 | 33846 ft | 435 kts | 241° |
| 2026-05-04 01:34 | 26.83651 | -149.90588 | 32859 ft | 438 kts | 240° |
| 2026-05-04 01:34 | 26.71714 | -150.11874 | 34363 ft | 436 kts | 240° |
| 2026-05-04 01:34 | 26.68516 | -150.17563 | 34146 ft | 435 kts | 240° |
| 2026-05-04 01:35 | 26.62047 | -150.29073 | 34145 ft | 438 kts | 240° |
| 2026-05-04 01:35 | 26.53668 | -150.43953 | 34145 ft | 438 kts | 240° |
| 2026-05-04 01:36 | 26.27716 | -150.89711 | 34134 ft | 436 kts | 240° |
| 2026-05-04 01:36 | 26.01188 | -151.36021 | 34128 ft | 436 kts | 240° |
| 2026-05-04 01:37 | 25.75114 | -151.81076 | 34127 ft | 436 kts | 239° |
| 2026-05-04 01:37 | 25.48713 | -152.26259 | 34124 ft | 435 kts | 239° |
| 2026-05-04 01:38 | 25.22208 | -152.71194 | 34118 ft | 434 kts | 239° |
| 2026-05-04 01:38 | 24.95861 | -153.15420 | 34113 ft | 433 kts | 239° |
| 2026-05-04 01:39 | 24.69202 | -153.59773 | 34110 ft | 434 kts | 239° |
| 2026-05-04 01:39 | 24.42225 | -154.04256 | 34102 ft | 436 kts | 239° |
| 2026-05-04 01:40 | 24.15356 | -154.48058 | 34116 ft | 436 kts | 239° |
| 2026-05-04 01:40 | 23.87951 | -154.91884 | 34111 ft | 436 kts | 238° |
| 2026-05-04 01:41 | 23.44108 | -155.62152 | 34083 ft | 437 kts | 243° |
| 2026-05-04 01:41 | 23.25143 | -156.10335 | 34097 ft | 432 kts | 250° |
| 2026-05-04 01:42 | 23.01998 | -156.56549 | 34102 ft | 438 kts | 242° |
| 2026-05-04 01:42 | 22.80277 | -157.03422 | 34100 ft | 434 kts | 249° |
| 2026-05-04 01:43 | 22.58584 | -157.50244 | 34090 ft | 437 kts | 243° |
| 2026-05-04 01:43 | 22.38418 | -157.90002 | 33174 ft | 427 kts | 247° |
| 2026-05-04 01:43 | 22.33396 | -158.01398 | 31372 ft | 422 kts | 247° |
| 2026-05-04 01:44 | 22.28344 | -158.12712 | 28140 ft | 415 kts | 245° |
| 2026-05-04 01:44 | 22.23075 | -158.23772 | 24899 ft | 408 kts | 243° |
| 2026-05-04 01:44 | 22.17749 | -158.34418 | 21688 ft | 400 kts | 242° |
| 2026-05-04 01:44 | 22.12586 | -158.44704 | 18503 ft | 392 kts | 243° |
| 2026-05-04 01:45 | 22.07544 | -158.55014 | 15881 ft | 380 kts | 244° |
| 2026-05-04 01:45 | 22.02777 | -158.64989 | 14741 ft | 367 kts | 244° |
| 2026-05-04 01:45 | 21.93518 | -158.84018 | 9946 ft | 358 kts | 242° |
| 2026-05-04 01:46 | 21.88845 | -158.93422 | 8563 ft | 338 kts | 242° |
| 2026-05-04 01:46 | 21.86718 | -158.97740 | 8080 ft | 319 kts | 243° |
| 2026-05-04 01:46 | 21.84703 | -159.01878 | 7588 ft | 301 kts | 243° |
| 2026-05-04 01:46 | 21.82812 | -159.05766 | 7143 ft | 288 kts | 242° |
| 2026-05-04 01:47 | 21.80964 | -159.09541 | 6627 ft | 281 kts | 242° |
| 2026-05-04 01:47 | 21.79139 | -159.13252 | 5855 ft | 281 kts | 242° |
| 2026-05-04 01:47 | 21.77307 | -159.16974 | 5091 ft | 280 kts | 242° |
| 2026-05-04 01:47 | 21.75494 | -159.20660 | 4439 ft | 277 kts | 242° |
| 2026-05-04 01:48 | 21.74119 | -159.23720 | 4074 ft | 262 kts | 259° |
| 2026-05-04 01:48 | 21.74190 | -159.25571 | 4075 ft | 241 kts | 294° |
| 2026-05-04 01:48 | 21.75028 | -159.27051 | 4100 ft | 226 kts | 313° |
| 2026-05-04 01:48 | 21.76029 | -159.28304 | 4093 ft | 212 kts | 312° |
| 2026-05-04 01:49 | 21.76854 | -159.29610 | 3998 ft | 215 kts | 303° |
| 2026-05-04 01:49 | 21.77584 | -159.31003 | 3756 ft | 214 kts | 302° |
| 2026-05-04 01:49 | 21.78332 | -159.32388 | 3604 ft | 211 kts | 308° |
| 2026-05-04 01:49 | 21.79368 | -159.33444 | 3424 ft | 200 kts | 338° |
| 2026-05-04 01:50 | 21.80669 | -159.33725 | 3143 ft | 190 kts | 6° |
| 2026-05-04 01:50 | 21.81983 | -159.33595 | 2860 ft | 186 kts | 7° |
| 2026-05-04 01:50 | 21.83273 | -159.33566 | 2613 ft | 182 kts | 3° |
| 2026-05-04 01:50 | 21.84520 | -159.33591 | 2375 ft | 178 kts | 4° |
| 2026-05-04 01:51 | 21.85726 | -159.33592 | 2149 ft | 166 kts | 4° |
| 2026-05-04 01:51 | 21.86848 | -159.33589 | 1945 ft | 155 kts | 5° |
| 2026-05-04 01:51 | 21.87912 | -159.33589 | 1719 ft | 150 kts | 5° |
| 2026-05-04 01:51 | 21.89490 | -159.33591 | 1460 ft | 144 kts | 5° |
| 2026-05-04 01:52 | 21.91458 | -159.33586 | 1073 ft | 140 kts | 4° |
| 2026-05-04 01:52 | 21.93199 | -159.33591 | 751 ft | 140 kts | 4° |
| 2026-05-04 01:52 | 21.94186 | -159.33586 | 573 ft | 140 kts | 4° |
| 2026-05-04 01:52 | 21.95155 | -159.33586 | 395 ft | 140 kts | 3° |
| 2026-05-04 01:53 | 21.96134 | -159.33591 | 209 ft | 139 kts | 3° |
| 2026-05-04 01:53 | 21.97079 | -159.33588 | 131 ft | 125 kts | 2° |
| 2026-05-04 01:53 | 21.97656 | -159.33589 | 135 ft | 37 kts | 358° |
| 2026-05-04 01:53 | 21.97831 | -159.33646 | 136 ft | 26 kts | 334° |
| 2026-05-04 01:54 | 21.97941 | -159.33771 | 138 ft | 23 kts | 266° |
| 2026-05-04 01:54 | 21.97942 | -159.34080 | 150 ft | 20 kts | 269° |
| 2026-05-04 01:54 | 21.97930 | -159.34354 | 162 ft | 15 kts | 246° |
| 2026-05-04 01:54 | 21.97805 | -159.34499 | 169 ft | 10 kts | 225° |
| 2026-05-04 01:55 | 21.97735 | -159.34596 | 175 ft | 6 kts | 277° |
| 2026-05-04 01:55 | 21.97787 | -159.34677 | 178 ft | 9 kts | 288° |
| 2026-05-04 01:55 | 21.97811 | -159.34767 | 181 ft | 5 kts | 9° |
| 2026-05-04 01:55 | 21.97830 | -159.34775 | 181 ft | 2 kts | 319° |
| 2026-05-04 01:56 | 21.97831 | -159.34775 | 181 ft | 0 kts | 319° |